Alexandria, VA

5:32 PM EDT on September 04, 2015 (GMT -0400)
Rosemont - Braddock Heights | | Change Station
CLOSE
Current Station
Personal Weather Station
Location: Alexandria, VA
Elevation: 33 ft
Nearby Weather Stations

Elev 33 ft 38.82 °N, 77.06 °W | Updated 2 minutes ago

Mostly Cloudy
Mostly Cloudy
86.5 °F
Feels Like 97 °F
N
0.0
Wind Variable Wind from West
Gusts 2.0 mph

Today
High -- | Low -- °F
--% Chance of Precip.
Yesterday
High -- | Low -- °F
Precip. -- in
6:39 AM 7:34 PM
Waning Gibbous, 56% visible
Pressure 30.02 in
Visibility 9.0 miles
Clouds Few 5000 ft
Mostly Cloudy 25000 ft
Heat Index 97 °F
Dew Point 76 °F
Humidity 71%
Rainfall 0.00 in
Snow Depth Not available.
UV 2 out of 12
Pollen 8.30 out of 12
Air Quality Not available.
Flu Activity Not available.
METAR KDCA 042052Z 14005KT 9SM FEW050 BKN250 31/21 A3002 RMK AO2 SLP164 CB DSNT NE MOV SW T03060211 53001
Pressure 30.02 in
Visibility 9.0 miles
Clouds Few 5000 ft
Mostly Cloudy 25000 ft
Heat Index 97 °F
Dew Point 76 °F
Humidity 71%
Rainfall 0.00 in
Snow Depth Not available.
UV 2 out of 12
Pollen 8.30 out of 12
Air Quality Not available.
Flu Activity Not available.
METAR KDCA 042052Z 14005KT 9SM FEW050 BKN250 31/21 A3002 RMK AO2 SLP164 CB DSNT NE MOV SW T03060211 53001

10-Day Weather Forecast

×

Almanac

Astronomy

Sep. 04, 2015 Rise Set
Actual Time
Civil Twilight
Nautical Twilight
Astronomical Twilight
Moon
Length of Visible Light
Length of Day
Tomorrow will be .
, % of the Moon is Illuminated

Today's Extremes

State Highs State Lows

Community

WunderPhotos

Upload Photos

1,852,297 photos uploaded!

WunderBlogs® & News

Nearby

Air Quality

  Air Quality AQ Index Pollutant
Not available.

Snow Depth

Station Depth Elevation

Earthquake Activity

City Distance Mag. Time & Date
Minimum magnitude displayed is 2.5.

Coastal Water Temperatures

Place Temperature

Stations

Nearby Weather Stations

Station Location Temp. Windchill Dew Point Humidity Wind Precip. Elev Updated Type